Time,TemperatureF,DewpointF,PressureIn,WindDirection,WindDirectionDegrees,WindSpeedMPH,WindSpeedGustMPH,Humidity,HourlyPrecipIn,Conditions,Clouds,dailyrainin,SolarRadiationWatts/m^2,SoftwareType,DateUTC
2013-09-07 00:02:00,72.0,48.0,-100.00,SE,146,0.0,3.0,42,0.00,,,0.00,0.000000,,2013-09-07 07:02:00,
2013-09-07 00:12:00,72.0,48.0,-100.00,SE,146,0.0,3.0,42,0.00,,,0.00,0.000000,,2013-09-07 07:12:00,
2013-09-07 00:22:00,72.0,48.0,-100.00,SE,146,0.0,3.0,42,0.00,,,0.00,0.000000,,2013-09-07 07:22:00,
2013-09-07 00:52:00,70.0,47.0,-100.00,SE,138,0.0,4.0,44,0.00,,,0.00,0.000000,,2013-09-07 07:52:00,
2013-09-07 01:02:00,70.0,47.0,-100.00,SE,138,0.0,4.0,44,0.00,,,0.00,0.000000,,2013-09-07 08:02:00,
2013-09-07 01:12:00,70.0,47.0,-100.00,SE,138,0.0,4.0,44,0.00,,,0.00,0.000000,,2013-09-07 08:12:00,
2013-09-07 01:21:00,70.0,47.0,-100.00,SE,138,0.0,4.0,44,0.00,,,0.00,0.000000,,2013-09-07 08:21:00,
2013-09-07 01:53:00,68.0,46.0,-100.00,SE,145,0.0,3.0,46,0.00,,,0.00,0.000000,,2013-09-07 08:53:00,
2013-09-07 02:01:00,68.0,46.0,-100.00,SE,145,0.0,3.0,46,0.00,,,0.00,0.000000,,2013-09-07 09:01:00,
2013-09-07 02:12:00,68.0,46.0,-100.00,SE,145,0.0,3.0,46,0.00,,,0.00,0.000000,,2013-09-07 09:12:00,
2013-09-07 02:21:00,68.0,46.0,-100.00,SE,145,0.0,3.0,46,0.00,,,0.00,0.000000,,2013-09-07 09:21:00,
2013-09-07 02:52:00,67.0,46.0,-100.00,SE,124,0.0,3.0,46,0.00,,,0.00,0.000000,,2013-09-07 09:52:00,
2013-09-07 03:01:00,67.0,46.0,-100.00,SE,124,0.0,3.0,46,0.00,,,0.00,0.000000,,2013-09-07 10:01:00,
2013-09-07 03:11:00,67.0,46.0,-100.00,SE,124,0.0,3.0,46,0.00,,,0.00,0.000000,,2013-09-07 10:11:00,
2013-09-07 03:21:00,67.0,46.0,-100.00,SE,124,0.0,3.0,46,0.00,,,0.00,0.000000,,2013-09-07 10:21:00,
2013-09-07 03:51:00,66.0,44.0,-100.00,ESE,112,0.0,4.0,45,0.00,,,0.00,0.000000,,2013-09-07 10:51:00,
2013-09-07 04:03:00,66.0,44.0,-100.00,ESE,112,0.0,4.0,45,0.00,,,0.00,0.000000,,2013-09-07 11:03:00,
2013-09-07 04:23:00,66.0,44.0,-100.00,ESE,112,0.0,4.0,45,0.00,,,0.00,0.000000,,2013-09-07 11:23:00,
2013-09-07 04:52:00,64.0,43.0,-100.00,ESE,107,0.0,4.0,46,0.00,,,0.00,0.000000,,2013-09-07 11:52:00,
2013-09-07 05:02:00,64.0,43.0,-100.00,ESE,107,0.0,4.0,46,0.00,,,0.00,0.000000,,2013-09-07 12:02:00,
2013-09-07 05:21:00,64.0,43.0,-100.00,ESE,107,0.0,4.0,46,0.00,,,0.00,0.000000,,2013-09-07 12:21:00,
2013-09-07 07:22:00,62.0,43.0,-100.00,SE,134,0.0,3.0,49,-99.99,,,0.00,0.000000,,2013-09-07 14:22:00,
2013-09-07 08:54:00,66.0,43.0,-100.00,SE,129,0.0,4.0,43,-99.99,,,0.00,40.000000,,2013-09-07 15:54:00,
2013-09-07 09:03:00,66.0,43.0,-100.00,SE,129,0.0,4.0,43,-99.99,,,0.00,40.000000,,2013-09-07 16:03:00,
2013-09-07 09:12:00,66.0,43.0,-100.00,SE,129,0.0,4.0,43,-99.99,,,0.00,40.000000,,2013-09-07 16:12:00,
2013-09-07 09:53:00,75.0,41.0,-100.00,SE,136,0.0,5.0,29,-99.99,,,0.00,119.000000,,2013-09-07 16:53:00,
2013-09-07 10:04:00,75.0,41.0,-100.00,SE,136,0.0,5.0,29,-99.99,,,0.00,119.000000,,2013-09-07 17:04:00,
2013-09-07 10:12:00,75.0,41.0,-100.00,SE,136,0.0,5.0,29,-99.99,,,0.00,119.000000,,2013-09-07 17:12:00,
2013-09-07 10:24:00,75.0,41.0,-100.00,SE,136,0.0,5.0,29,-99.99,,,0.00,119.000000,,2013-09-07 17:24:00,
2013-09-07 10:52:00,88.0,42.0,-100.00,NNW,328,1.0,6.0,20,0.00,,,0.00,386.000000,,2013-09-07 17:52:00,
2013-09-07 11:01:00,88.0,42.0,-100.00,NNW,328,1.0,6.0,20,0.00,,,0.00,386.000000,,2013-09-07 18:01:00,
2013-09-07 11:12:00,88.0,42.0,-100.00,NNW,328,1.0,6.0,20,0.00,,,0.00,386.000000,,2013-09-07 18:12:00,
2013-09-07 11:21:00,88.0,42.0,-100.00,NNW,328,1.0,6.0,20,0.00,,,0.00,386.000000,,2013-09-07 18:21:00,
2013-09-07 12:21:00,94.0,38.0,-100.00,SSW,206,0.0,5.0,14,0.00,,,0.00,943.000000,,2013-09-07 19:21:00,
2013-09-07 14:12:00,99.0,33.0,-100.00,ENE,59,5.0,13.0,10,0.00,,,0.00,1158.000000,,2013-09-07 21:12:00,
2013-09-07 14:22:00,99.0,33.0,-100.00,ENE,59,5.0,13.0,10,0.00,,,0.00,1158.000000,,2013-09-07 21:22:00,
2013-09-07 14:54:00,98.0,30.0,-100.00,SSW,205,6.0,13.0,9,0.00,,,0.00,1141.000000,,2013-09-07 21:54:00,
2013-09-07 15:04:00,98.0,30.0,-100.00,SSW,205,6.0,13.0,9,0.00,,,0.00,1141.000000,,2013-09-07 22:04:00,
2013-09-07 15:13:00,98.0,30.0,-100.00,SSW,205,6.0,13.0,9,0.00,,,0.00,1141.000000,,2013-09-07 22:13:00,
2013-09-07 15:24:00,98.0,30.0,-100.00,SSW,205,6.0,13.0,9,0.00,,,0.00,1141.000000,,2013-09-07 22:24:00,
2013-09-07 15:53:00,100.0,31.0,-100.00,WSW,244,7.0,16.0,9,0.00,,,0.00,1047.000000,,2013-09-07 22:53:00,
2013-09-07 16:03:00,100.0,31.0,-100.00,WSW,244,7.0,16.0,9,0.00,,,0.00,1047.000000,,2013-09-07 23:03:00,
2013-09-07 16:12:00,100.0,31.0,-100.00,WSW,244,7.0,16.0,9,0.00,,,0.00,1047.000000,,2013-09-07 23:12:00,
2013-09-07 16:23:00,100.0,31.0,-100.00,WSW,244,7.0,16.0,9,0.00,,,0.00,1047.000000,,2013-09-07 23:23:00,
2013-09-07 16:53:00,98.0,32.0,-100.00,SW,235,7.0,16.0,10,0.00,,,0.00,873.000000,,2013-09-07 23:53:00,
2013-09-07 17:02:00,98.0,32.0,-100.00,SW,235,7.0,16.0,10,0.00,,,0.00,873.000000,,2013-09-08 00:02:00,
2013-09-07 17:11:00,98.0,32.0,-100.00,SW,235,7.0,16.0,10,0.00,,,0.00,873.000000,,2013-09-08 00:11:00,
2013-09-07 17:22:00,98.0,32.0,-100.00,SW,235,7.0,16.0,10,0.00,,,0.00,873.000000,,2013-09-08 00:22:00,
2013-09-07 17:52:00,99.0,33.0,-100.00,WSW,246,6.0,14.0,10,0.00,,,0.00,649.000000,,2013-09-08 00:52:00,
2013-09-07 18:01:00,99.0,33.0,-100.00,WSW,246,6.0,14.0,10,0.00,,,0.00,649.000000,,2013-09-08 01:01:00,
2013-09-07 18:11:00,99.0,33.0,-100.00,WSW,246,6.0,14.0,10,0.00,,,0.00,649.000000,,2013-09-08 01:11:00,
2013-09-07 18:22:00,99.0,33.0,-100.00,WSW,246,6.0,14.0,10,0.00,,,0.00,649.000000,,2013-09-08 01:22:00,
2013-09-07 18:52:00,95.0,30.0,-100.00,WSW,247,7.0,16.0,10,0.00,,,0.00,342.000000,,2013-09-08 01:52:00,
2013-09-07 19:02:00,95.0,30.0,-100.00,WSW,247,7.0,16.0,10,0.00,,,0.00,342.000000,,2013-09-08 02:02:00,
2013-09-07 19:11:00,95.0,30.0,-100.00,WSW,247,7.0,16.0,10,0.00,,,0.00,342.000000,,2013-09-08 02:11:00,
2013-09-07 19:22:00,95.0,30.0,-100.00,WSW,247,7.0,16.0,10,0.00,,,0.00,342.000000,,2013-09-08 02:22:00,
2013-09-07 19:52:00,90.0,26.0,-100.00,South,185,2.0,14.0,10,0.00,,,0.00,119.000000,,2013-09-08 02:52:00,
2013-09-07 20:02:00,90.0,26.0,-100.00,South,185,2.0,14.0,10,0.00,,,0.00,119.000000,,2013-09-08 03:02:00,
2013-09-07 20:12:00,90.0,26.0,-100.00,South,185,2.0,14.0,10,0.00,,,0.00,119.000000,,2013-09-08 03:12:00,
2013-09-07 20:22:00,90.0,26.0,-100.00,South,185,2.0,14.0,10,0.00,,,0.00,119.000000,,2013-09-08 03:22:00,
2013-09-07 20:54:00,83.0,31.0,-100.00,SE,136,0.0,9.0,15,0.00,,,0.00,1.000000,,2013-09-08 03:54:00,
2013-09-07 21:02:00,-999.0,-99.9,-100.00,SE,136,0.0,9.0,-999,-99.99,,,-99.99,1.000000,,2013-09-08 04:02:00,
2013-09-07 21:14:00,83.0,31.0,-100.00,SE,136,0.0,9.0,15,0.00,,,0.00,1.000000,,2013-09-08 04:14:00,
2013-09-07 21:24:00,83.0,31.0,-100.00,SE,136,0.0,9.0,15,0.00,,,0.00,1.000000,,2013-09-08 04:24:00,
2013-09-07 21:54:00,79.0,30.0,-100.00,SSE,154,0.0,4.0,17,0.00,,,0.00,0.000000,,2013-09-08 04:54:00,
2013-09-07 22:03:00,79.0,30.0,-100.00,SSE,154,0.0,4.0,17,0.00,,,0.00,0.000000,,2013-09-08 05:03:00,
2013-09-07 22:12:00,79.0,30.0,-100.00,SSE,154,0.0,4.0,17,0.00,,,0.00,0.000000,,2013-09-08 05:12:00,
2013-09-07 22:23:00,79.0,30.0,-100.00,SSE,154,0.0,4.0,17,0.00,,,0.00,0.000000,,2013-09-08 05:23:00,
2013-09-07 22:52:00,75.0,30.0,-100.00,SE,131,0.0,4.0,19,0.00,,,0.00,0.000000,,2013-09-08 05:52:00,
2013-09-07 23:03:00,75.0,30.0,-100.00,SE,131,0.0,4.0,19,0.00,,,0.00,0.000000,,2013-09-08 06:03:00,
2013-09-07 23:13:00,75.0,30.0,-100.00,SE,131,0.0,4.0,19,0.00,,,0.00,0.000000,,2013-09-08 06:13:00,
2013-09-07 23:21:00,75.0,30.0,-100.00,SE,131,0.0,4.0,19,0.00,,,0.00,0.000000,,2013-09-08 06:21:00,
2013-09-07 23:53:00,74.0,30.0,-100.00,SSE,161,0.0,3.0,20,0.00,,,0.00,0.000000,,2013-09-08 06:53:00,